sensor_id;sensor_type;location;lat;lon;timestamp;P1;durP1;ratioP1;P2;durP2;ratioP2
70675;SDS011;59069;52.242;20.900;2023-08-21T00:00:44;17.33;;;14.43;;
70675;SDS011;59069;52.242;20.900;2023-08-21T00:03:09;20.47;;;14.53;;
70675;SDS011;59069;52.242;20.900;2023-08-21T00:05:34;18.58;;;14.25;;
70675;SDS011;59069;52.242;20.900;2023-08-21T00:08:00;19.10;;;14.17;;
70675;SDS011;59069;52.242;20.900;2023-08-21T00:10:25;18.17;;;14.50;;
70675;SDS011;59069;52.242;20.900;2023-08-21T00:12:50;21.77;;;15.03;;
70675;SDS011;59069;52.242;20.900;2023-08-21T00:15:16;19.63;;;15.07;;
70675;SDS011;59069;52.242;20.900;2023-08-21T00:17:41;20.63;;;16.05;;
70675;SDS011;59069;52.242;20.900;2023-08-21T00:20:07;20.70;;;15.13;;
70675;SDS011;59069;52.242;20.900;2023-08-21T00:22:34;21.50;;;14.68;;
70675;SDS011;59069;52.242;20.900;2023-08-21T00:25:00;20.58;;;15.65;;
70675;SDS011;59069;52.242;20.900;2023-08-21T00:27:26;22.57;;;15.70;;
70675;SDS011;59069;52.242;20.900;2023-08-21T00:29:51;21.20;;;16.57;;
70675;SDS011;59069;52.242;20.900;2023-08-21T00:32:16;22.40;;;15.77;;
70675;SDS011;59069;52.242;20.900;2023-08-21T00:34:42;20.70;;;15.40;;
70675;SDS011;59069;52.242;20.900;2023-08-21T00:37:07;21.33;;;16.05;;
70675;SDS011;59069;52.242;20.900;2023-08-21T00:39:32;20.20;;;15.10;;
70675;SDS011;59069;52.242;20.900;2023-08-21T00:41:58;23.33;;;15.87;;
70675;SDS011;59069;52.242;20.900;2023-08-21T00:44:23;21.20;;;16.87;;
70675;SDS011;59069;52.242;20.900;2023-08-21T00:46:48;21.90;;;16.07;;
70675;SDS011;59069;52.242;20.900;2023-08-21T00:49:14;20.87;;;15.70;;
70675;SDS011;59069;52.242;20.900;2023-08-21T00:51:39;21.77;;;16.50;;
70675;SDS011;59069;52.242;20.900;2023-08-21T00:54:05;22.40;;;16.03;;
70675;SDS011;59069;52.242;20.900;2023-08-21T00:56:30;23.90;;;17.17;;
70675;SDS011;59069;52.242;20.900;2023-08-21T00:58:56;25.53;;;16.13;;
70675;SDS011;59069;52.242;20.900;2023-08-21T01:01:23;21.60;;;16.63;;
70675;SDS011;59069;52.242;20.900;2023-08-21T01:03:50;20.65;;;16.20;;
70675;SDS011;59069;52.242;20.900;2023-08-21T01:06:16;21.90;;;16.43;;
70675;SDS011;59069;52.242;20.900;2023-08-21T01:11:31;22.48;;;16.20;;
70675;SDS011;59069;52.242;20.900;2023-08-21T01:14:10;23.88;;;16.90;;
70675;SDS011;59069;52.242;20.900;2023-08-21T01:16:52;22.75;;;17.08;;
70675;SDS011;59069;52.242;20.900;2023-08-21T01:19:36;22.60;;;17.08;;
70675;SDS011;59069;52.242;20.900;2023-08-21T01:22:05;23.97;;;16.13;;
70675;SDS011;59069;52.242;20.900;2023-08-21T01:24:31;22.15;;;17.02;;
70675;SDS011;59069;52.242;20.900;2023-08-21T01:26:56;23.43;;;17.40;;
70675;SDS011;59069;52.242;20.900;2023-08-21T01:29:22;26.35;;;17.75;;
70675;SDS011;59069;52.242;20.900;2023-08-21T01:32:07;23.33;;;17.27;;
70675;SDS011;59069;52.242;20.900;2023-08-21T01:34:38;22.50;;;16.53;;
70675;SDS011;59069;52.242;20.900;2023-08-21T01:37:05;23.80;;;17.20;;
70675;SDS011;59069;52.242;20.900;2023-08-21T01:39:32;22.38;;;17.73;;
70675;SDS011;59069;52.242;20.900;2023-08-21T01:41:58;24.60;;;17.38;;
70675;SDS011;59069;52.242;20.900;2023-08-21T01:44:23;22.13;;;15.83;;
70675;SDS011;59069;52.242;20.900;2023-08-21T01:46:49;23.50;;;17.70;;
70675;SDS011;59069;52.242;20.900;2023-08-21T01:49:15;25.70;;;17.20;;
70675;SDS011;59069;52.242;20.900;2023-08-21T01:51:40;22.00;;;17.27;;
70675;SDS011;59069;52.242;20.900;2023-08-21T01:54:05;22.67;;;17.23;;
70675;SDS011;59069;52.242;20.900;2023-08-21T01:56:31;23.80;;;17.73;;
70675;SDS011;59069;52.242;20.900;2023-08-21T01:58:56;22.63;;;17.17;;
70675;SDS011;59069;52.242;20.900;2023-08-21T02:01:21;23.70;;;16.63;;
70675;SDS011;59069;52.242;20.900;2023-08-21T02:03:48;23.83;;;17.20;;
70675;SDS011;59069;52.242;20.900;2023-08-21T02:06:13;22.53;;;17.00;;
70675;SDS011;59069;52.242;20.900;2023-08-21T02:08:39;22.05;;;15.93;;
70675;SDS011;59069;52.242;20.900;2023-08-21T02:11:04;23.13;;;16.60;;
70675;SDS011;59069;52.242;20.900;2023-08-21T02:13:29;24.77;;;17.40;;
70675;SDS011;59069;52.242;20.900;2023-08-21T02:15:55;23.93;;;17.37;;
70675;SDS011;59069;52.242;20.900;2023-08-21T02:18:20;21.50;;;16.30;;
70675;SDS011;59069;52.242;20.900;2023-08-21T02:20:46;21.80;;;15.87;;
70675;SDS011;59069;52.242;20.900;2023-08-21T02:23:12;22.52;;;16.88;;
70675;SDS011;59069;52.242;20.900;2023-08-21T02:25:37;24.73;;;17.80;;
70675;SDS011;59069;52.242;20.900;2023-08-21T02:28:03;27.23;;;17.77;;
70675;SDS011;59069;52.242;20.900;2023-08-21T02:30:29;24.07;;;17.37;;
70675;SDS011;59069;52.242;20.900;2023-08-21T02:32:54;24.92;;;17.65;;
70675;SDS011;59069;52.242;20.900;2023-08-21T02:35:20;24.27;;;17.87;;
70675;SDS011;59069;52.242;20.900;2023-08-21T02:37:46;23.60;;;18.48;;
70675;SDS011;59069;52.242;20.900;2023-08-21T02:40:11;23.23;;;17.67;;
70675;SDS011;59069;52.242;20.900;2023-08-21T02:42:36;27.40;;;18.33;;
70675;SDS011;59069;52.242;20.900;2023-08-21T02:45:02;25.10;;;18.70;;
70675;SDS011;59069;52.242;20.900;2023-08-21T02:47:33;22.98;;;16.33;;
70675;SDS011;59069;52.242;20.900;2023-08-21T02:50:08;27.25;;;18.13;;
70675;SDS011;59069;52.242;20.900;2023-08-21T02:52:34;23.58;;;17.40;;
70675;SDS011;59069;52.242;20.900;2023-08-21T02:55:00;27.00;;;19.02;;
70675;SDS011;59069;52.242;20.900;2023-08-21T02:57:26;21.87;;;16.83;;
70675;SDS011;59069;52.242;20.900;2023-08-21T02:59:52;26.05;;;18.65;;
70675;SDS011;59069;52.242;20.900;2023-08-21T03:02:18;24.63;;;18.02;;
70675;SDS011;59069;52.242;20.900;2023-08-21T03:04:43;25.57;;;17.00;;
70675;SDS011;59069;52.242;20.900;2023-08-21T03:07:09;24.20;;;17.43;;
70675;SDS011;59069;52.242;20.900;2023-08-21T03:09:35;24.40;;;18.00;;
70675;SDS011;59069;52.242;20.900;2023-08-21T03:12:01;24.33;;;17.07;;
70675;SDS011;59069;52.242;20.900;2023-08-21T03:14:26;23.35;;;17.98;;
70675;SDS011;59069;52.242;20.900;2023-08-21T03:16:52;22.60;;;16.63;;
70675;SDS011;59069;52.242;20.900;2023-08-21T03:19:17;26.03;;;17.43;;
70675;SDS011;59069;52.242;20.900;2023-08-21T03:21:43;24.57;;;18.33;;
70675;SDS011;59069;52.242;20.900;2023-08-21T03:24:08;26.23;;;18.47;;
70675;SDS011;59069;52.242;20.900;2023-08-21T03:26:33;23.58;;;17.52;;
70675;SDS011;59069;52.242;20.900;2023-08-21T03:28:59;25.13;;;17.83;;
70675;SDS011;59069;52.242;20.900;2023-08-21T03:31:25;25.30;;;18.90;;
70675;SDS011;59069;52.242;20.900;2023-08-21T03:33:50;25.65;;;17.92;;
70675;SDS011;59069;52.242;20.900;2023-08-21T03:36:15;27.30;;;19.13;;
70675;SDS011;59069;52.242;20.900;2023-08-21T03:38:41;26.80;;;17.13;;
70675;SDS011;59069;52.242;20.900;2023-08-21T03:41:06;25.93;;;18.67;;
70675;SDS011;59069;52.242;20.900;2023-08-21T03:43:31;23.30;;;17.13;;
70675;SDS011;59069;52.242;20.900;2023-08-21T03:45:57;26.25;;;18.52;;
70675;SDS011;59069;52.242;20.900;2023-08-21T03:48:23;27.03;;;18.20;;
70675;SDS011;59069;52.242;20.900;2023-08-21T03:50:49;27.15;;;19.15;;
70675;SDS011;59069;52.242;20.900;2023-08-21T03:53:14;25.05;;;18.00;;
70675;SDS011;59069;52.242;20.900;2023-08-21T03:55:40;23.57;;;16.97;;
70675;SDS011;59069;52.242;20.900;2023-08-21T03:58:05;25.60;;;18.53;;
70675;SDS011;59069;52.242;20.900;2023-08-21T04:00:30;25.40;;;18.00;;
70675;SDS011;59069;52.242;20.900;2023-08-21T04:02:56;24.13;;;17.70;;
70675;SDS011;59069;52.242;20.900;2023-08-21T04:05:22;23.13;;;16.88;;
70675;SDS011;59069;52.242;20.900;2023-08-21T04:07:47;26.17;;;18.10;;
70675;SDS011;59069;52.242;20.900;2023-08-21T04:10:13;24.67;;;17.50;;
70675;SDS011;59069;52.242;20.900;2023-08-21T04:12:38;26.35;;;18.05;;
70675;SDS011;59069;52.242;20.900;2023-08-21T04:15:04;27.27;;;18.60;;
70675;SDS011;59069;52.242;20.900;2023-08-21T04:17:31;26.38;;;18.80;;
70675;SDS011;59069;52.242;20.900;2023-08-21T04:19:56;23.73;;;17.23;;
70675;SDS011;59069;52.242;20.900;2023-08-21T04:22:22;23.67;;;17.80;;
70675;SDS011;59069;52.242;20.900;2023-08-21T04:24:47;26.17;;;18.60;;
70675;SDS011;59069;52.242;20.900;2023-08-21T04:27:13;26.13;;;18.37;;
70675;SDS011;59069;52.242;20.900;2023-08-21T04:29:38;26.10;;;18.63;;
70675;SDS011;59069;52.242;20.900;2023-08-21T04:32:04;26.20;;;17.98;;
70675;SDS011;59069;52.242;20.900;2023-08-21T04:34:29;27.20;;;18.27;;
70675;SDS011;59069;52.242;20.900;2023-08-21T04:36:59;28.02;;;19.13;;
70675;SDS011;59069;52.242;20.900;2023-08-21T04:39:25;28.27;;;18.87;;
70675;SDS011;59069;52.242;20.900;2023-08-21T04:41:50;25.90;;;18.90;;
70675;SDS011;59069;52.242;20.900;2023-08-21T04:44:16;26.83;;;18.53;;
70675;SDS011;59069;52.242;20.900;2023-08-21T04:46:41;28.02;;;19.52;;
70675;SDS011;59069;52.242;20.900;2023-08-21T04:49:07;26.20;;;18.27;;
70675;SDS011;59069;52.242;20.900;2023-08-21T04:51:33;27.63;;;18.45;;
70675;SDS011;59069;52.242;20.900;2023-08-21T04:53:59;27.60;;;17.77;;
70675;SDS011;59069;52.242;20.900;2023-08-21T04:56:24;26.37;;;19.10;;
70675;SDS011;59069;52.242;20.900;2023-08-21T04:58:50;28.83;;;19.15;;
70675;SDS011;59069;52.242;20.900;2023-08-21T05:01:16;28.20;;;17.95;;
70675;SDS011;59069;52.242;20.900;2023-08-21T05:03:41;24.50;;;19.07;;
70675;SDS011;59069;52.242;20.900;2023-08-21T05:06:07;27.13;;;18.57;;
70675;SDS011;59069;52.242;20.900;2023-08-21T05:08:33;25.77;;;18.60;;
70675;SDS011;59069;52.242;20.900;2023-08-21T05:10:59;27.98;;;18.20;;
70675;SDS011;59069;52.242;20.900;2023-08-21T05:13:24;26.27;;;18.05;;
70675;SDS011;59069;52.242;20.900;2023-08-21T05:15:51;26.80;;;19.05;;
70675;SDS011;59069;52.242;20.900;2023-08-21T05:18:18;24.93;;;19.23;;
70675;SDS011;59069;52.242;20.900;2023-08-21T05:20:43;25.50;;;18.30;;
70675;SDS011;59069;52.242;20.900;2023-08-21T05:23:09;27.80;;;19.20;;
70675;SDS011;59069;52.242;20.900;2023-08-21T05:25:34;26.70;;;18.67;;
70675;SDS011;59069;52.242;20.900;2023-08-21T05:27:59;31.50;;;19.50;;
70675;SDS011;59069;52.242;20.900;2023-08-21T05:30:25;26.40;;;19.07;;
70675;SDS011;59069;52.242;20.900;2023-08-21T05:32:50;31.40;;;19.57;;
70675;SDS011;59069;52.242;20.900;2023-08-21T05:35:16;28.53;;;19.50;;
70675;SDS011;59069;52.242;20.900;2023-08-21T05:37:41;31.77;;;18.47;;
70675;SDS011;59069;52.242;20.900;2023-08-21T05:40:07;31.73;;;20.20;;
70675;SDS011;59069;52.242;20.900;2023-08-21T05:42:33;30.60;;;18.88;;
70675;SDS011;59069;52.242;20.900;2023-08-21T05:44:58;28.77;;;19.20;;
70675;SDS011;59069;52.242;20.900;2023-08-21T05:47:23;26.80;;;19.27;;
70675;SDS011;59069;52.242;20.900;2023-08-21T05:49:49;28.73;;;19.00;;
70675;SDS011;59069;52.242;20.900;2023-08-21T05:52:15;28.98;;;19.45;;
70675;SDS011;59069;52.242;20.900;2023-08-21T05:54:40;26.13;;;19.00;;
70675;SDS011;59069;52.242;20.900;2023-08-21T05:57:06;28.43;;;18.97;;
70675;SDS011;59069;52.242;20.900;2023-08-21T05:59:31;28.60;;;19.53;;
70675;SDS011;59069;52.242;20.900;2023-08-21T06:01:57;25.80;;;18.42;;
70675;SDS011;59069;52.242;20.900;2023-08-21T06:04:23;26.00;;;18.97;;
70675;SDS011;59069;52.242;20.900;2023-08-21T06:06:49;27.50;;;19.23;;
70675;SDS011;59069;52.242;20.900;2023-08-21T06:09:14;30.00;;;19.70;;
70675;SDS011;59069;52.242;20.900;2023-08-21T06:11:42;27.60;;;18.50;;
70675;SDS011;59069;52.242;20.900;2023-08-21T06:14:07;25.13;;;19.20;;
70675;SDS011;59069;52.242;20.900;2023-08-21T06:16:33;24.03;;;18.17;;
70675;SDS011;59069;52.242;20.900;2023-08-21T06:18:58;24.27;;;18.13;;
70675;SDS011;59069;52.242;20.900;2023-08-21T06:21:23;25.30;;;18.50;;
70675;SDS011;59069;52.242;20.900;2023-08-21T06:23:49;25.97;;;17.77;;
70675;SDS011;59069;52.242;20.900;2023-08-21T06:26:14;23.43;;;18.60;;
70675;SDS011;59069;52.242;20.900;2023-08-21T06:28:39;23.73;;;18.40;;
70675;SDS011;59069;52.242;20.900;2023-08-21T06:31:05;24.87;;;17.83;;
70675;SDS011;59069;52.242;20.900;2023-08-21T06:33:32;28.73;;;18.55;;
70675;SDS011;59069;52.242;20.900;2023-08-21T06:35:58;26.23;;;18.83;;
70675;SDS011;59069;52.242;20.900;2023-08-21T06:38:24;25.38;;;18.70;;
70675;SDS011;59069;52.242;20.900;2023-08-21T06:40:49;22.30;;;17.73;;
70675;SDS011;59069;52.242;20.900;2023-08-21T06:43:16;24.88;;;17.90;;
70675;SDS011;59069;52.242;20.900;2023-08-21T06:45:41;23.90;;;17.90;;
70675;SDS011;59069;52.242;20.900;2023-08-21T06:48:07;23.63;;;17.27;;
70675;SDS011;59069;52.242;20.900;2023-08-21T06:50:32;26.43;;;18.33;;
70675;SDS011;59069;52.242;20.900;2023-08-21T06:52:57;28.70;;;18.73;;
70675;SDS011;59069;52.242;20.900;2023-08-21T06:55:23;23.73;;;17.97;;
70675;SDS011;59069;52.242;20.900;2023-08-21T06:57:48;24.10;;;17.83;;
70675;SDS011;59069;52.242;20.900;2023-08-21T07:00:13;25.00;;;18.20;;
70675;SDS011;59069;52.242;20.900;2023-08-21T07:02:39;25.17;;;17.90;;
70675;SDS011;59069;52.242;20.900;2023-08-21T07:05:04;23.67;;;16.90;;
70675;SDS011;59069;52.242;20.900;2023-08-21T07:07:30;21.10;;;16.50;;
70675;SDS011;59069;52.242;20.900;2023-08-21T07:09:55;26.13;;;17.23;;
70675;SDS011;59069;52.242;20.900;2023-08-21T07:12:21;23.17;;;17.60;;
70675;SDS011;59069;52.242;20.900;2023-08-21T07:14:47;24.75;;;18.40;;
70675;SDS011;59069;52.242;20.900;2023-08-21T07:17:13;26.47;;;18.00;;
70675;SDS011;59069;52.242;20.900;2023-08-21T07:19:38;25.83;;;18.42;;
70675;SDS011;59069;52.242;20.900;2023-08-21T07:22:03;25.27;;;18.70;;
70675;SDS011;59069;52.242;20.900;2023-08-21T07:24:29;28.13;;;17.83;;
70675;SDS011;59069;52.242;20.900;2023-08-21T07:26:54;24.33;;;17.73;;
70675;SDS011;59069;52.242;20.900;2023-08-21T07:29:20;25.10;;;18.20;;
70675;SDS011;59069;52.242;20.900;2023-08-21T07:31:45;26.77;;;18.80;;
70675;SDS011;59069;52.242;20.900;2023-08-21T07:34:10;24.73;;;18.67;;
70675;SDS011;59069;52.242;20.900;2023-08-21T07:36:36;26.97;;;19.07;;
70675;SDS011;59069;52.242;20.900;2023-08-21T07:39:01;27.87;;;18.90;;
70675;SDS011;59069;52.242;20.900;2023-08-21T07:41:27;27.83;;;19.67;;
70675;SDS011;59069;52.242;20.900;2023-08-21T07:43:52;24.98;;;19.23;;
70675;SDS011;59069;52.242;20.900;2023-08-21T07:46:17;25.90;;;19.10;;
70675;SDS011;59069;52.242;20.900;2023-08-21T07:48:44;27.50;;;19.37;;
70675;SDS011;59069;52.242;20.900;2023-08-21T07:51:09;23.97;;;18.37;;
70675;SDS011;59069;52.242;20.900;2023-08-21T07:53:35;25.05;;;17.90;;
70675;SDS011;59069;52.242;20.900;2023-08-21T07:56:01;26.30;;;18.03;;
70675;SDS011;59069;52.242;20.900;2023-08-21T07:58:28;25.30;;;18.58;;
70675;SDS011;59069;52.242;20.900;2023-08-21T08:00:54;24.70;;;18.20;;
70675;SDS011;59069;52.242;20.900;2023-08-21T08:03:20;23.45;;;17.70;;
70675;SDS011;59069;52.242;20.900;2023-08-21T08:05:45;24.10;;;17.47;;
70675;SDS011;59069;52.242;20.900;2023-08-21T08:08:11;24.57;;;17.47;;
70675;SDS011;59069;52.242;20.900;2023-08-21T08:10:37;23.73;;;17.58;;
70675;SDS011;59069;52.242;20.900;2023-08-21T08:13:06;24.50;;;16.77;;
70675;SDS011;59069;52.242;20.900;2023-08-21T08:15:32;23.45;;;17.65;;
70675;SDS011;59069;52.242;20.900;2023-08-21T08:17:59;23.80;;;16.95;;
70675;SDS011;59069;52.242;20.900;2023-08-21T08:20:24;21.07;;;16.50;;
70675;SDS011;59069;52.242;20.900;2023-08-21T08:22:50;23.17;;;16.05;;
70675;SDS011;59069;52.242;20.900;2023-08-21T08:25:15;22.30;;;16.57;;
70675;SDS011;59069;52.242;20.900;2023-08-21T08:27:41;22.50;;;14.52;;
70675;SDS011;59069;52.242;20.900;2023-08-21T08:30:08;19.87;;;15.20;;
70675;SDS011;59069;52.242;20.900;2023-08-21T08:32:34;18.98;;;14.40;;
70675;SDS011;59069;52.242;20.900;2023-08-21T08:34:59;18.13;;;14.15;;
70675;SDS011;59069;52.242;20.900;2023-08-21T08:37:25;18.63;;;12.87;;
70675;SDS011;59069;52.242;20.900;2023-08-21T08:39:50;17.93;;;13.40;;
70675;SDS011;59069;52.242;20.900;2023-08-21T08:42:16;16.73;;;13.17;;
70675;SDS011;59069;52.242;20.900;2023-08-21T08:44:41;19.10;;;11.98;;
70675;SDS011;59069;52.242;20.900;2023-08-21T08:47:09;18.37;;;11.90;;
70675;SDS011;59069;52.242;20.900;2023-08-21T08:49:35;15.55;;;11.68;;
70675;SDS011;59069;52.242;20.900;2023-08-21T08:52:02;16.10;;;11.80;;
70675;SDS011;59069;52.242;20.900;2023-08-21T08:54:28;15.00;;;10.70;;
70675;SDS011;59069;52.242;20.900;2023-08-21T08:56:54;14.47;;;10.27;;
70675;SDS011;59069;52.242;20.900;2023-08-21T08:59:20;12.30;;;10.30;;
70675;SDS011;59069;52.242;20.900;2023-08-21T09:01:45;13.83;;;10.47;;
70675;SDS011;59069;52.242;20.900;2023-08-21T09:04:11;16.17;;;10.70;;
70675;SDS011;59069;52.242;20.900;2023-08-21T09:06:37;14.37;;;10.93;;
70675;SDS011;59069;52.242;20.900;2023-08-21T09:09:03;13.02;;;10.38;;
70675;SDS011;59069;52.242;20.900;2023-08-21T09:11:29;14.10;;;10.27;;
70675;SDS011;59069;52.242;20.900;2023-08-21T09:13:55;13.03;;;8.77;;
70675;SDS011;59069;52.242;20.900;2023-08-21T09:16:21;11.52;;;9.52;;
70675;SDS011;59069;52.242;20.900;2023-08-21T09:18:54;13.18;;;9.38;;
70675;SDS011;59069;52.242;20.900;2023-08-21T09:21:22;13.25;;;8.48;;
70675;SDS011;59069;52.242;20.900;2023-08-21T09:23:49;10.13;;;7.53;;
70675;SDS011;59069;52.242;20.900;2023-08-21T09:26:22;10.73;;;7.55;;
70675;SDS011;59069;52.242;20.900;2023-08-21T09:28:48;10.40;;;7.57;;
70675;SDS011;59069;52.242;20.900;2023-08-21T09:31:14;11.90;;;8.02;;
70675;SDS011;59069;52.242;20.900;2023-08-21T09:33:40;9.77;;;7.97;;
70675;SDS011;59069;52.242;20.900;2023-08-21T09:36:05;11.57;;;7.77;;
70675;SDS011;59069;52.242;20.900;2023-08-21T09:38:31;12.05;;;7.57;;
70675;SDS011;59069;52.242;20.900;2023-08-21T09:41:00;10.75;;;7.53;;
70675;SDS011;59069;52.242;20.900;2023-08-21T09:43:25;11.90;;;7.43;;
70675;SDS011;59069;52.242;20.900;2023-08-21T09:45:52;12.33;;;7.63;;
70675;SDS011;59069;52.242;20.900;2023-08-21T09:48:24;11.13;;;7.60;;
70675;SDS011;59069;52.242;20.900;2023-08-21T09:50:52;10.63;;;7.13;;
70675;SDS011;59069;52.242;20.900;2023-08-21T09:53:17;9.97;;;6.97;;
70675;SDS011;59069;52.242;20.900;2023-08-21T09:55:53;10.40;;;6.38;;
70675;SDS011;59069;52.242;20.900;2023-08-21T09:58:19;8.38;;;4.53;;
70675;SDS011;59069;52.242;20.900;2023-08-21T10:00:45;10.90;;;5.22;;
70675;SDS011;59069;52.242;20.900;2023-08-21T10:03:13;8.73;;;4.40;;
70675;SDS011;59069;52.242;20.900;2023-08-21T10:05:40;10.83;;;3.83;;
70675;SDS011;59069;52.242;20.900;2023-08-21T10:08:08;8.20;;;3.50;;
70675;SDS011;59069;52.242;20.900;2023-08-21T10:10:35;10.55;;;4.32;;
70675;SDS011;59069;52.242;20.900;2023-08-21T10:13:02;9.05;;;4.63;;
70675;SDS011;59069;52.242;20.900;2023-08-21T10:15:29;6.53;;;3.90;;
70675;SDS011;59069;52.242;20.900;2023-08-21T10:17:55;8.40;;;4.63;;
70675;SDS011;59069;52.242;20.900;2023-08-21T10:20:22;8.55;;;4.13;;
70675;SDS011;59069;52.242;20.900;2023-08-21T10:22:49;8.75;;;4.68;;
70675;SDS011;59069;52.242;20.900;2023-08-21T10:25:19;7.18;;;4.50;;
70675;SDS011;59069;52.242;20.900;2023-08-21T10:27:52;9.52;;;4.10;;
70675;SDS011;59069;52.242;20.900;2023-08-21T10:30:22;7.53;;;3.97;;
70675;SDS011;59069;52.242;20.900;2023-08-21T10:32:49;10.65;;;4.47;;
70675;SDS011;59069;52.242;20.900;2023-08-21T10:35:19;9.45;;;4.72;;
70675;SDS011;59069;52.242;20.900;2023-08-21T10:40:34;8.90;;;5.15;;
70675;SDS011;59069;52.242;20.900;2023-08-21T10:43:01;7.63;;;5.03;;
70675;SDS011;59069;52.242;20.900;2023-08-21T10:45:28;11.38;;;5.82;;
70675;SDS011;59069;52.242;20.900;2023-08-21T10:47:56;8.02;;;5.68;;
70675;SDS011;59069;52.242;20.900;2023-08-21T10:50:22;11.18;;;6.00;;
70675;SDS011;59069;52.242;20.900;2023-08-21T10:52:48;12.60;;;6.03;;
70675;SDS011;59069;52.242;20.900;2023-08-21T10:55:17;9.70;;;5.78;;
70675;SDS011;59069;52.242;20.900;2023-08-21T10:57:48;9.93;;;6.07;;
70675;SDS011;59069;52.242;20.900;2023-08-21T11:00:18;9.23;;;5.33;;
70675;SDS011;59069;52.242;20.900;2023-08-21T11:02:45;8.38;;;5.60;;
70675;SDS011;59069;52.242;20.900;2023-08-21T11:05:11;7.35;;;4.72;;
70675;SDS011;59069;52.242;20.900;2023-08-21T11:07:38;8.73;;;5.00;;
70675;SDS011;59069;52.242;20.900;2023-08-21T11:10:07;9.23;;;5.32;;
70675;SDS011;59069;52.242;20.900;2023-08-21T11:12:35;8.17;;;4.43;;
70675;SDS011;59069;52.242;20.900;2023-08-21T11:15:01;7.77;;;4.37;;
70675;SDS011;59069;52.242;20.900;2023-08-21T11:17:28;8.00;;;4.13;;
70675;SDS011;59069;52.242;20.900;2023-08-21T11:19:53;8.17;;;4.27;;
70675;SDS011;59069;52.242;20.900;2023-08-21T11:22:18;7.63;;;4.53;;
70675;SDS011;59069;52.242;20.900;2023-08-21T11:24:45;9.70;;;4.57;;
70675;SDS011;59069;52.242;20.900;2023-08-21T11:27:13;8.27;;;4.50;;
70675;SDS011;59069;52.242;20.900;2023-08-21T11:29:44;7.37;;;4.60;;
70675;SDS011;59069;52.242;20.900;2023-08-21T11:35:01;7.15;;;4.50;;
70675;SDS011;59069;52.242;20.900;2023-08-21T11:37:28;7.80;;;3.90;;
70675;SDS011;59069;52.242;20.900;2023-08-21T11:39:54;10.33;;;4.07;;
70675;SDS011;59069;52.242;20.900;2023-08-21T11:42:22;7.65;;;3.92;;
70675;SDS011;59069;52.242;20.900;2023-08-21T11:44:54;7.32;;;4.18;;
70675;SDS011;59069;52.242;20.900;2023-08-21T11:47:21;7.33;;;4.10;;
70675;SDS011;59069;52.242;20.900;2023-08-21T11:49:48;7.82;;;3.92;;
70675;SDS011;59069;52.242;20.900;2023-08-21T11:52:18;8.80;;;3.65;;
70675;SDS011;59069;52.242;20.900;2023-08-21T11:54:47;6.80;;;3.67;;
70675;SDS011;59069;52.242;20.900;2023-08-21T11:57:14;8.13;;;3.60;;
70675;SDS011;59069;52.242;20.900;2023-08-21T11:59:39;6.80;;;3.70;;
70675;SDS011;59069;52.242;20.900;2023-08-21T12:02:17;7.78;;;3.75;;
70675;SDS011;59069;52.242;20.900;2023-08-21T12:04:44;8.65;;;3.50;;
70675;SDS011;59069;52.242;20.900;2023-08-21T12:07:10;13.07;;;4.17;;
70675;SDS011;59069;52.242;20.900;2023-08-21T12:09:37;7.18;;;3.47;;
70675;SDS011;59069;52.242;20.900;2023-08-21T12:12:02;8.00;;;4.23;;
70675;SDS011;59069;52.242;20.900;2023-08-21T12:14:28;8.20;;;4.03;;
70675;SDS011;59069;52.242;20.900;2023-08-21T12:16:54;8.35;;;4.00;;
70675;SDS011;59069;52.242;20.900;2023-08-21T12:19:22;7.23;;;3.47;;
70675;SDS011;59069;52.242;20.900;2023-08-21T12:21:48;6.53;;;3.05;;
70675;SDS011;59069;52.242;20.900;2023-08-21T12:24:15;6.80;;;3.00;;
70675;SDS011;59069;52.242;20.900;2023-08-21T12:26:40;5.90;;;2.77;;
70675;SDS011;59069;52.242;20.900;2023-08-21T12:29:06;7.07;;;3.07;;
70675;SDS011;59069;52.242;20.900;2023-08-21T12:31:31;7.73;;;3.20;;
70675;SDS011;59069;52.242;20.900;2023-08-21T12:33:57;7.70;;;3.40;;
70675;SDS011;59069;52.242;20.900;2023-08-21T12:36:22;11.03;;;3.17;;
70675;SDS011;59069;52.242;20.900;2023-08-21T12:38:48;7.68;;;2.90;;
70675;SDS011;59069;52.242;20.900;2023-08-21T12:41:13;7.97;;;3.40;;
70675;SDS011;59069;52.242;20.900;2023-08-21T12:43:39;9.53;;;2.90;;
70675;SDS011;59069;52.242;20.900;2023-08-21T12:46:04;7.20;;;2.83;;
70675;SDS011;59069;52.242;20.900;2023-08-21T12:48:30;8.32;;;3.03;;
70675;SDS011;59069;52.242;20.900;2023-08-21T12:50:55;6.07;;;3.30;;
70675;SDS011;59069;52.242;20.900;2023-08-21T12:53:21;5.80;;;2.63;;
70675;SDS011;59069;52.242;20.900;2023-08-21T12:55:46;7.10;;;2.90;;
70675;SDS011;59069;52.242;20.900;2023-08-21T12:58:12;5.30;;;2.80;;
70675;SDS011;59069;52.242;20.900;2023-08-21T13:00:38;5.93;;;2.80;;
70675;SDS011;59069;52.242;20.900;2023-08-21T13:03:04;6.70;;;3.15;;
70675;SDS011;59069;52.242;20.900;2023-08-21T13:05:30;6.00;;;3.20;;
70675;SDS011;59069;52.242;20.900;2023-08-21T13:07:55;6.47;;;3.53;;
70675;SDS011;59069;52.242;20.900;2023-08-21T13:10:20;7.33;;;3.40;;
70675;SDS011;59069;52.242;20.900;2023-08-21T13:12:46;6.77;;;3.60;;
70675;SDS011;59069;52.242;20.900;2023-08-21T13:15:11;7.93;;;3.50;;
70675;SDS011;59069;52.242;20.900;2023-08-21T13:17:36;7.38;;;3.85;;
70675;SDS011;59069;52.242;20.900;2023-08-21T13:20:02;7.17;;;3.60;;
70675;SDS011;59069;52.242;20.900;2023-08-21T13:22:28;8.00;;;4.13;;
70675;SDS011;59069;52.242;20.900;2023-08-21T13:24:54;6.23;;;4.17;;
70675;SDS011;59069;52.242;20.900;2023-08-21T13:27:19;7.37;;;4.10;;
70675;SDS011;59069;52.242;20.900;2023-08-21T13:29:45;8.83;;;4.80;;
70675;SDS011;59069;52.242;20.900;2023-08-21T13:32:11;8.23;;;5.00;;
70675;SDS011;59069;52.242;20.900;2023-08-21T13:34:37;7.13;;;5.00;;
70675;SDS011;59069;52.242;20.900;2023-08-21T13:37:02;6.87;;;4.80;;
70675;SDS011;59069;52.242;20.900;2023-08-21T13:39:29;6.65;;;5.20;;
70675;SDS011;59069;52.242;20.900;2023-08-21T13:41:55;6.97;;;5.10;;
70675;SDS011;59069;52.242;20.900;2023-08-21T13:44:21;7.90;;;5.00;;
70675;SDS011;59069;52.242;20.900;2023-08-21T13:46:46;8.10;;;5.55;;
70675;SDS011;59069;52.242;20.900;2023-08-21T13:49:12;6.70;;;4.90;;
70675;SDS011;59069;52.242;20.900;2023-08-21T13:51:37;6.03;;;4.97;;
70675;SDS011;59069;52.242;20.900;2023-08-21T13:54:02;6.17;;;4.23;;
70675;SDS011;59069;52.242;20.900;2023-08-21T13:56:28;6.93;;;4.73;;
70675;SDS011;59069;52.242;20.900;2023-08-21T13:58:53;8.13;;;4.47;;
70675;SDS011;59069;52.242;20.900;2023-08-21T14:01:18;6.67;;;4.63;;
70675;SDS011;59069;52.242;20.900;2023-08-21T14:03:44;7.57;;;5.13;;
70675;SDS011;59069;52.242;20.900;2023-08-21T14:06:09;6.68;;;4.80;;
70675;SDS011;59069;52.242;20.900;2023-08-21T14:08:36;6.43;;;5.00;;
70675;SDS011;59069;52.242;20.900;2023-08-21T14:11:03;5.80;;;4.80;;
70675;SDS011;59069;52.242;20.900;2023-08-21T14:13:28;7.00;;;4.85;;
70675;SDS011;59069;52.242;20.900;2023-08-21T14:15:54;6.17;;;4.37;;
70675;SDS011;59069;52.242;20.900;2023-08-21T14:18:19;7.20;;;5.00;;